Search for airport 
image banner adimage banner adimage banner ad
image banner ad

03G - Thermal-G

Located in Erie, United States

ICAO - 03G, IATA -

Data provided by Airmate  

General information

Coordinates: N42°1'14" W80°4'15"
Elevation is 1434 feet MSL.
Magnetic variation is -08° East
View others Airports in Pennsylvania

Operational data

Special qualification required
Current time UTC:
Current local time:
Weather at : KERI - Erie Intl/Tom Ridge Field ( 11 km )
METAR: KERI 091551Z 10005KT 10SM OVC070 10/02 A2996 RMK AO2 SLP148 T01000017
TAF: KERI 091126Z 0912/1012 17005KT P6SM BKN200 FM091600 14006KT 6SM -RA OVC035 FM091800 10008KT 5SM -RA OVC025 FM092100 05014G22KT 2SM RA OVC008 FM100300 02012G20KT P6SM OVC008 FM100700 35007KT P6SM BKN025
View NOTAMs / SUP AIP / TFR affecting this airport [VIEW]
Communications frequencies: [VIEW]

Runways:

RWY identifierQFULength (ft)Width (ft)SurfaceLDA (ft)
0764°1264110GRASS
25244°1264110GRASS

Airport contact information

Address: Erie United States

Satellite view of 03G